createdAt,value
2018-05-19T00:00:56.111Z,1018.05
2018-05-19T00:01:56.050Z,1018.03
2018-05-19T00:02:55.986Z,1018.04
2018-05-19T00:03:55.922Z,1018.08
2018-05-19T00:04:55.867Z,1018.04
2018-05-19T00:05:55.795Z,1018.05
2018-05-19T00:06:55.739Z,1018.11
2018-05-19T00:07:55.668Z,1018.09
2018-05-19T00:08:55.604Z,1018.09
2018-05-19T00:09:55.548Z,1018.13
2018-05-19T00:10:55.479Z,1018.09
2018-05-19T00:11:55.417Z,1018.04
2018-05-19T00:12:55.356Z,1018.04
2018-05-19T00:13:55.291Z,1018.04
2018-05-19T00:14:55.223Z,1018.05
2018-05-19T00:15:55.159Z,1018.02
2018-05-19T00:16:55.105Z,1018.04
2018-05-19T00:17:55.092Z,1018.04
2018-05-19T00:18:54.973Z,1018.05
2018-05-19T00:19:54.911Z,1018.04
2018-05-19T00:20:54.852Z,1018.02
2018-05-19T00:21:54.779Z,1018.03
2018-05-19T00:22:54.724Z,1018.00
2018-05-19T00:23:54.659Z,1018.02
2018-05-19T00:24:54.596Z,1018.01
2018-05-19T00:25:54.532Z,1017.99
2018-05-19T00:26:54.468Z,1018.03
2018-05-19T00:27:54.403Z,1018.01
2018-05-19T00:28:54.341Z,1018.03
2018-05-19T00:29:54.276Z,1018.00
2018-05-19T00:30:54.215Z,1018.04
2018-05-19T00:31:54.151Z,1018.00
2018-05-19T00:32:54.098Z,1018.03
2018-05-19T00:33:54.021Z,1018.01
2018-05-19T00:34:53.960Z,1018.02
2018-05-19T00:35:53.895Z,1017.97
2018-05-19T00:36:53.842Z,1018.01
2018-05-19T00:37:53.770Z,1018.00
2018-05-19T00:38:53.710Z,1017.98
2018-05-19T00:39:53.642Z,1017.98
2018-05-19T00:40:53.579Z,1017.96
2018-05-19T00:41:53.516Z,1017.94
2018-05-19T00:42:53.453Z,1017.94
2018-05-19T00:43:53.390Z,1017.96
2018-05-19T00:44:53.327Z,1017.92
2018-05-19T00:45:53.263Z,1017.94
2018-05-19T00:46:53.198Z,1017.91
2018-05-19T00:47:53.134Z,1017.87
2018-05-19T00:48:53.072Z,1017.88
2018-05-19T00:49:53.012Z,1017.87
2018-05-19T00:50:52.944Z,1017.92
2018-05-19T00:51:52.882Z,1017.85
2018-05-19T00:52:52.823Z,1017.88
2018-05-19T00:53:52.759Z,1017.90
2018-05-19T00:54:52.694Z,1017.88
2018-05-19T00:55:52.640Z,1017.88
2018-05-19T00:56:52.565Z,1017.89
2018-05-19T00:57:52.502Z,1017.90
2018-05-19T00:58:52.436Z,1017.95
2018-05-19T00:59:52.373Z,1017.93
2018-05-19T01:00:52.313Z,1017.95
2018-05-19T01:01:52.248Z,1017.89
2018-05-19T01:02:52.182Z,1017.93
2018-05-19T01:03:52.122Z,1017.92
2018-05-19T01:04:52.061Z,1017.90
2018-05-19T01:05:51.993Z,1017.92
2018-05-19T01:06:51.935Z,1017.95
2018-05-19T01:07:51.865Z,1017.92
2018-05-19T01:08:51.803Z,1017.97
2018-05-19T01:09:51.743Z,1017.93
2018-05-19T01:10:51.677Z,1017.91
2018-05-19T01:11:51.618Z,1017.94
2018-05-19T01:12:51.548Z,1017.95
2018-05-19T01:13:51.486Z,1017.94
2018-05-19T01:14:51.427Z,1017.94
2018-05-19T01:15:51.361Z,1017.97
2018-05-19T01:16:51.300Z,1017.95
2018-05-19T01:17:51.234Z,1017.98
2018-05-19T01:18:51.169Z,1017.96
2018-05-19T01:19:51.107Z,1017.97
2018-05-19T01:20:51.048Z,1017.96
2018-05-19T01:21:50.978Z,1017.99
2018-05-19T01:22:50.921Z,1017.97
2018-05-19T01:23:50.856Z,1017.98
2018-05-19T01:24:50.793Z,1018.03
2018-05-19T01:25:50.724Z,1018.05
2018-05-19T01:26:50.667Z,1018.02
2018-05-19T01:27:50.602Z,1018.02
2018-05-19T01:28:50.539Z,1018.04
2018-05-19T01:29:50.477Z,1018.05
2018-05-19T01:30:50.410Z,1018.03
2018-05-19T01:31:50.354Z,1018.05
2018-05-19T01:32:50.284Z,1018.06
2018-05-19T01:33:50.221Z,1018.08
2018-05-19T01:34:50.161Z,1018.07
2018-05-19T01:35:50.101Z,1018.04
2018-05-19T01:36:50.034Z,1018.05
2018-05-19T01:37:49.968Z,1018.02
2018-05-19T01:38:49.906Z,1018.06
2018-05-19T01:39:49.842Z,1018.08
2018-05-19T01:40:49.782Z,1018.05
2018-05-19T01:41:49.716Z,1018.04
2018-05-19T01:42:49.658Z,1018.07
2018-05-19T01:43:49.588Z,1018.07
2018-05-19T01:44:49.526Z,1018.02
2018-05-19T01:45:49.462Z,1018.05
2018-05-19T01:46:49.402Z,1017.98
2018-05-19T01:47:49.336Z,1018.06
2018-05-19T01:48:49.275Z,1018.00
2018-05-19T01:49:49.213Z,1017.99
2018-05-19T01:50:49.147Z,1018.03
2018-05-19T01:51:49.089Z,1018.00
2018-05-19T01:52:49.022Z,1018.01
2018-05-19T01:53:48.954Z,1018.02
2018-05-19T01:54:48.897Z,1017.93
2018-05-19T01:55:48.836Z,1017.96
2018-05-19T01:56:48.769Z,1017.96
2018-05-19T01:57:48.701Z,1018.03
2018-05-19T01:58:48.645Z,1017.95
2018-05-19T01:59:48.591Z,1017.95
2018-05-19T02:00:48.524Z,1018.01
2018-05-19T02:01:48.456Z,1018.03
2018-05-19T02:02:48.390Z,1017.97
2018-05-19T02:03:48.326Z,1018.02
2018-05-19T02:04:48.263Z,1017.98
2018-05-19T02:05:48.200Z,1017.96
2018-05-19T02:06:48.137Z,1018.02
2018-05-19T02:07:48.074Z,1017.98
2018-05-19T02:08:48.010Z,1017.95
2018-05-19T02:09:47.948Z,1017.90
2018-05-19T02:10:47.882Z,1017.88
2018-05-19T02:11:47.825Z,1017.87
2018-05-19T02:12:47.756Z,1017.91
2018-05-19T02:13:47.689Z,1017.88
2018-05-19T02:14:47.629Z,1017.94
2018-05-19T02:15:47.570Z,1017.86
2018-05-19T02:16:47.502Z,1017.85
2018-05-19T02:17:47.439Z,1017.87
2018-05-19T02:18:47.378Z,1017.89
2018-05-19T02:19:47.314Z,1017.87
2018-05-19T02:20:47.262Z,1017.90
2018-05-19T02:21:47.187Z,1017.88
2018-05-19T02:22:47.121Z,1017.90
2018-05-19T02:23:47.060Z,1017.88
2018-05-19T02:24:46.994Z,1017.93
2018-05-19T02:25:46.930Z,1017.89
2018-05-19T02:26:46.869Z,1017.88
2018-05-19T02:27:46.813Z,1017.88
2018-05-19T02:28:46.742Z,1017.86
2018-05-19T02:29:46.677Z,1017.87
2018-05-19T02:30:46.617Z,1017.86
2018-05-19T02:31:46.552Z,1017.85
2018-05-19T02:32:46.488Z,1017.90
2018-05-19T02:33:46.425Z,1017.91
2018-05-19T02:34:46.360Z,1017.87
2018-05-19T02:35:46.297Z,1017.87
2018-05-19T02:36:46.234Z,1017.88
2018-05-19T02:37:46.173Z,1017.90
2018-05-19T02:38:46.108Z,1017.87
2018-05-19T02:39:46.048Z,1017.88
2018-05-19T02:40:45.987Z,1017.85
2018-05-19T02:41:45.918Z,1017.86
2018-05-19T02:42:45.854Z,1017.84
2018-05-19T02:43:45.791Z,1017.82
2018-05-19T02:44:45.730Z,1017.84
2018-05-19T02:45:45.662Z,1017.81
2018-05-19T02:46:45.600Z,1017.84
2018-05-19T02:47:45.546Z,1017.90
2018-05-19T02:48:45.472Z,1017.87
2018-05-19T02:49:45.419Z,1017.90
2018-05-19T02:50:45.349Z,1017.89
2018-05-19T02:51:45.285Z,1017.86
2018-05-19T02:52:45.223Z,1017.86
2018-05-19T02:53:45.203Z,1017.84
2018-05-19T02:54:45.091Z,1017.83
2018-05-19T02:55:45.031Z,1017.83
2018-05-19T02:56:44.966Z,1017.88
2018-05-19T02:57:44.903Z,1017.86
2018-05-19T02:58:44.844Z,1017.86
2018-05-19T02:59:44.777Z,1017.86
2018-05-19T03:00:44.717Z,1017.86
2018-05-19T03:01:44.656Z,1017.83
2018-05-19T03:02:44.590Z,1017.88
2018-05-19T03:03:44.527Z,1017.85
2018-05-19T03:04:44.463Z,1017.83
2018-05-19T03:05:44.401Z,1017.75
2018-05-19T03:06:44.335Z,1017.81
2018-05-19T03:07:44.272Z,1017.79
2018-05-19T03:08:44.211Z,1017.82
2018-05-19T03:09:44.152Z,1017.83
2018-05-19T03:10:44.082Z,1017.73
2018-05-19T03:11:44.024Z,1017.78
2018-05-19T03:12:43.958Z,1017.77
2018-05-19T03:13:43.896Z,1017.81
2018-05-19T03:14:43.830Z,1017.81
2018-05-19T03:15:43.767Z,1017.80
2018-05-19T03:16:43.705Z,1017.81
2018-05-19T03:17:43.642Z,1017.82
2018-05-19T03:18:43.578Z,1017.86
2018-05-19T03:19:43.513Z,1017.88
2018-05-19T03:20:43.450Z,1017.78
2018-05-19T03:21:43.387Z,1017.84
2018-05-19T03:22:43.327Z,1017.77
2018-05-19T03:23:43.262Z,1017.82
2018-05-19T03:24:43.198Z,1017.83
2018-05-19T03:25:43.137Z,1017.86
2018-05-19T03:26:43.081Z,1017.87
2018-05-19T03:27:43.008Z,1017.86
2018-05-19T03:28:42.947Z,1017.83
2018-05-19T03:29:42.882Z,1017.84
2018-05-19T03:30:42.822Z,1017.91
2018-05-19T03:31:42.761Z,1017.85
2018-05-19T03:32:42.696Z,1017.89
2018-05-19T03:33:42.631Z,1017.90
2018-05-19T03:34:42.570Z,1017.95
2018-05-19T03:35:42.510Z,1017.94
2018-05-19T03:36:42.443Z,1017.94
2018-05-19T03:37:42.384Z,1017.93
2018-05-19T03:38:42.315Z,1017.96
2018-05-19T03:39:42.250Z,1017.99
2018-05-19T03:40:42.188Z,1017.95
2018-05-19T03:41:42.130Z,1017.99
2018-05-19T03:42:42.067Z,1018.00
2018-05-19T03:43:42.002Z,1018.02
2018-05-19T03:44:41.938Z,1018.01
2018-05-19T03:45:41.876Z,1018.04
2018-05-19T03:46:41.812Z,1018.06
2018-05-19T03:47:41.748Z,1018.08
2018-05-19T03:48:41.688Z,1018.05
2018-05-19T03:49:41.626Z,1018.08
2018-05-19T03:50:41.564Z,1018.11
2018-05-19T03:51:41.496Z,1018.10
2018-05-19T03:52:41.441Z,1018.06
2018-05-19T03:53:41.373Z,1018.10
2018-05-19T03:54:41.310Z,1018.08
2018-05-19T03:55:41.245Z,1018.11
2018-05-19T03:56:41.182Z,1018.12
2018-05-19T03:57:41.121Z,1018.14
2018-05-19T03:58:41.059Z,1018.13
2018-05-19T03:59:40.993Z,1018.07
2018-05-19T04:00:40.931Z,1018.11
2018-05-19T04:01:40.867Z,1018.12
2018-05-19T04:02:40.808Z,1018.16
2018-05-19T04:03:40.744Z,1018.17
2018-05-19T04:04:40.679Z,1018.18
2018-05-19T04:05:40.617Z,1018.21
2018-05-19T04:06:40.557Z,1018.23
2018-05-19T04:07:40.493Z,1018.23
2018-05-19T04:08:40.432Z,1018.22
2018-05-19T04:09:40.368Z,1018.21
2018-05-19T04:10:40.303Z,1018.21
2018-05-19T04:11:40.244Z,1018.25
2018-05-19T04:12:40.177Z,1018.21
2018-05-19T04:13:40.110Z,1018.26
2018-05-19T04:14:40.053Z,1018.25
2018-05-19T04:15:39.997Z,1018.27
2018-05-19T04:16:39.924Z,1018.26
2018-05-19T04:17:39.864Z,1018.31
2018-05-19T04:18:39.800Z,1018.31
2018-05-19T04:19:39.740Z,1018.33
2018-05-19T04:20:39.674Z,1018.30
2018-05-19T04:21:39.615Z,1018.28
2018-05-19T04:22:39.558Z,1018.29
2018-05-19T04:23:39.484Z,1018.27
2018-05-19T04:24:39.422Z,1018.24
2018-05-19T04:25:39.361Z,1018.26
2018-05-19T04:26:39.299Z,1018.24
2018-05-19T04:27:39.236Z,1018.28
2018-05-19T04:28:39.179Z,1018.25
2018-05-19T04:29:39.112Z,1018.29
2018-05-19T04:30:39.048Z,1018.27
2018-05-19T04:31:38.984Z,1018.29
2018-05-19T04:32:38.922Z,1018.31
2018-05-19T04:33:38.858Z,1018.33
2018-05-19T04:34:38.798Z,1018.33
2018-05-19T04:35:38.734Z,1018.34
2018-05-19T04:36:38.669Z,1018.35
2018-05-19T04:37:38.608Z,1018.33
2018-05-19T04:38:38.549Z,1018.35
2018-05-19T04:39:38.484Z,1018.34
2018-05-19T04:40:38.423Z,1018.33
2018-05-19T04:41:38.359Z,1018.39
2018-05-19T04:42:38.296Z,1018.41
2018-05-19T04:43:38.232Z,1018.42
2018-05-19T04:44:38.170Z,1018.41
2018-05-19T04:45:38.109Z,1018.41
2018-05-19T04:46:38.044Z,1018.45
2018-05-19T04:47:37.983Z,1018.40
2018-05-19T04:48:37.921Z,1018.47
2018-05-19T04:49:37.860Z,1018.46
2018-05-19T04:50:37.792Z,1018.50
2018-05-19T04:51:37.733Z,1018.43
2018-05-19T04:52:37.670Z,1018.48
2018-05-19T04:53:37.607Z,1018.46
2018-05-19T04:54:37.543Z,1018.49
2018-05-19T04:55:37.480Z,1018.49
2018-05-19T04:56:37.418Z,1018.52
2018-05-19T04:57:37.356Z,1018.49
2018-05-19T04:58:37.298Z,1018.51
2018-05-19T04:59:37.233Z,1018.51
2018-05-19T05:00:37.170Z,1018.52
2018-05-19T05:01:37.110Z,1018.56
2018-05-19T05:02:37.045Z,1018.58
2018-05-19T05:03:36.986Z,1018.57
2018-05-19T05:04:36.919Z,1018.61
2018-05-19T05:05:36.854Z,1018.58
2018-05-19T05:06:36.800Z,1018.59
2018-05-19T05:07:36.729Z,1018.62
2018-05-19T05:08:36.662Z,1018.61
2018-05-19T05:09:36.609Z,1018.64
2018-05-19T05:10:36.544Z,1018.63
2018-05-19T05:11:36.482Z,1018.62
2018-05-19T05:12:36.419Z,1018.64
2018-05-19T05:13:36.356Z,1018.62
2018-05-19T05:14:36.297Z,1018.62
2018-05-19T05:15:36.225Z,1018.66
2018-05-19T05:16:36.166Z,1018.64
2018-05-19T05:17:36.108Z,1018.63
2018-05-19T05:18:36.042Z,1018.65
2018-05-19T05:19:35.981Z,1018.69
2018-05-19T05:20:35.918Z,1018.70
2018-05-19T05:21:35.857Z,1018.68
2018-05-19T05:22:35.792Z,1018.75
2018-05-19T05:23:35.728Z,1018.76
2018-05-19T05:24:35.673Z,1018.73
2018-05-19T05:25:35.607Z,1018.75
2018-05-19T05:26:35.548Z,1018.71
2018-05-19T05:27:35.483Z,1018.72
2018-05-19T05:28:35.419Z,1018.77
2018-05-19T05:29:35.359Z,1018.73
2018-05-19T05:30:35.299Z,1018.76
2018-05-19T05:31:35.231Z,1018.75
2018-05-19T05:32:35.170Z,1018.75
2018-05-19T05:33:35.108Z,1018.72
2018-05-19T05:34:35.054Z,1018.77
2018-05-19T05:35:34.978Z,1018.78
2018-05-19T05:36:34.922Z,1018.77
2018-05-19T05:37:34.922Z,1018.80
2018-05-19T05:38:34.795Z,1018.82
2018-05-19T05:39:34.733Z,1018.90
2018-05-19T05:40:34.669Z,1018.88
2018-05-19T05:41:34.608Z,1018.88
2018-05-19T05:42:34.548Z,1018.87
2018-05-19T05:43:34.479Z,1018.88
2018-05-19T05:44:34.428Z,1018.91
2018-05-19T05:45:34.359Z,1018.89
2018-05-19T05:46:34.296Z,1018.93
2018-05-19T05:47:34.233Z,1018.92
2018-05-19T05:48:34.171Z,1018.92
2018-05-19T05:49:34.111Z,1018.98
2018-05-19T05:50:34.050Z,1018.95
2018-05-19T05:51:33.986Z,1018.96
2018-05-19T05:52:33.928Z,1019.03
2018-05-19T05:53:33.861Z,1018.98
2018-05-19T05:54:33.797Z,1019.03
2018-05-19T05:55:33.734Z,1019.05
2018-05-19T05:56:33.674Z,1019.01
2018-05-19T05:57:33.621Z,1019.02
2018-05-19T05:58:33.547Z,1019.03
2018-05-19T05:59:33.534Z,1019.09
2018-05-19T06:00:33.423Z,1019.08
2018-05-19T06:01:33.367Z,1019.12
2018-05-19T06:02:33.299Z,1019.10
2018-05-19T06:03:33.241Z,1019.14
2018-05-19T06:04:33.177Z,1019.14
2018-05-19T06:05:33.117Z,1019.18
2018-05-19T06:06:33.049Z,1019.24
2018-05-19T06:07:32.993Z,1019.19
2018-05-19T06:08:32.933Z,1019.23
2018-05-19T06:09:32.865Z,1019.21
2018-05-19T06:10:32.804Z,1019.15
2018-05-19T06:11:32.749Z,1019.18
2018-05-19T06:12:32.679Z,1019.21
2018-05-19T06:13:32.618Z,1019.18
2018-05-19T06:14:32.559Z,1019.19
2018-05-19T06:15:32.496Z,1019.17
2018-05-19T06:16:32.438Z,1019.15
2018-05-19T06:17:32.372Z,1019.20
2018-05-19T06:18:32.316Z,1019.22
2018-05-19T06:19:32.246Z,1019.23
2018-05-19T06:20:32.184Z,1019.18
2018-05-19T06:21:32.125Z,1019.22
2018-05-19T06:22:32.064Z,1019.24
2018-05-19T06:23:32.003Z,1019.24
2018-05-19T06:24:31.943Z,1019.26
2018-05-19T06:25:31.875Z,1019.26
2018-05-19T06:26:31.812Z,1019.28
2018-05-19T06:27:31.750Z,1019.25
2018-05-19T06:28:31.687Z,1019.31
2018-05-19T06:29:31.630Z,1019.31
2018-05-19T06:30:31.573Z,1019.35
2018-05-19T06:31:31.503Z,1019.38
2018-05-19T06:32:31.442Z,1019.36
2018-05-19T06:33:31.381Z,1019.38
2018-05-19T06:34:31.321Z,1019.36
2018-05-19T06:35:31.260Z,1019.38
2018-05-19T06:36:31.198Z,1019.40
2018-05-19T06:37:31.138Z,1019.42
2018-05-19T06:38:31.071Z,1019.40
2018-05-19T06:39:31.011Z,1019.40
2018-05-19T06:40:30.948Z,1019.44
2018-05-19T06:41:30.888Z,1019.45
2018-05-19T06:42:30.828Z,1019.42
2018-05-19T06:43:30.763Z,1019.45
2018-05-19T06:44:30.701Z,1019.39
2018-05-19T06:45:30.644Z,1019.41
2018-05-19T06:46:30.580Z,1019.42
2018-05-19T06:47:30.519Z,1019.43
2018-05-19T06:48:30.460Z,1019.44
2018-05-19T06:49:30.393Z,1019.43
2018-05-19T06:50:30.326Z,1019.43
2018-05-19T06:51:30.277Z,1019.41
2018-05-19T06:52:30.207Z,1019.44
2018-05-19T06:53:30.149Z,1019.42
2018-05-19T06:54:30.088Z,1019.42
2018-05-19T06:55:30.046Z,1019.47
2018-05-19T06:56:29.961Z,1019.45
2018-05-19T06:57:29.900Z,1019.47
2018-05-19T06:58:29.839Z,1019.50
2018-05-19T06:59:29.774Z,1019.47
2018-05-19T07:00:29.723Z,1019.52
2018-05-19T07:01:29.655Z,1019.50
2018-05-19T07:02:29.590Z,1019.50
2018-05-19T07:03:29.528Z,1019.55
2018-05-19T07:04:29.470Z,1019.54
2018-05-19T07:05:29.408Z,1019.62
2018-05-19T07:06:29.353Z,1019.58
2018-05-19T07:07:29.281Z,1019.60
2018-05-19T07:08:29.223Z,1019.61
2018-05-19T07:09:29.161Z,1019.64
2018-05-19T07:10:29.101Z,1019.65
2018-05-19T07:11:29.034Z,1019.66
2018-05-19T07:12:28.972Z,1019.65
2018-05-19T07:13:28.913Z,1019.64
2018-05-19T07:14:28.851Z,1019.68
2018-05-19T07:15:28.791Z,1019.63
2018-05-19T07:16:28.728Z,1019.64
2018-05-19T07:17:28.667Z,1019.68
2018-05-19T07:18:28.606Z,1019.70
2018-05-19T07:19:28.545Z,1019.72
2018-05-19T07:20:28.484Z,1019.71
2018-05-19T07:21:28.419Z,1019.73
2018-05-19T07:22:28.357Z,1019.75
2018-05-19T07:23:28.298Z,1019.74
2018-05-19T07:24:28.236Z,1019.78
2018-05-19T07:25:28.203Z,1019.76
2018-05-19T07:26:28.113Z,1019.84
2018-05-19T07:27:28.118Z,1019.78
2018-05-19T07:28:27.998Z,1019.81
2018-05-19T07:29:27.982Z,1019.82
2018-05-19T07:30:27.867Z,1019.76
2018-05-19T07:31:27.807Z,1019.80
2018-05-19T07:32:27.968Z,1019.79
2018-05-19T07:33:27.685Z,1019.81
2018-05-19T07:34:27.617Z,1019.84
2018-05-19T07:35:27.562Z,1019.84
2018-05-19T07:36:27.500Z,1019.84
2018-05-19T07:37:27.437Z,1019.83
2018-05-19T07:38:27.378Z,1019.85
2018-05-19T07:39:27.317Z,1019.91
2018-05-19T07:40:27.257Z,1019.92
2018-05-19T07:41:27.195Z,1019.92
2018-05-19T07:42:27.127Z,1019.90
2018-05-19T07:43:27.068Z,1019.92
2018-05-19T07:44:27.003Z,1019.96
2018-05-19T07:45:26.946Z,1019.97
2018-05-19T07:46:26.888Z,1020.05
2018-05-19T07:47:26.827Z,1020.07
2018-05-19T07:48:26.758Z,1020.16
2018-05-19T07:49:26.720Z,1020.19
2018-05-19T07:50:26.646Z,1020.23
2018-05-19T07:51:26.590Z,1020.32
2018-05-19T07:52:26.526Z,1020.32
2018-05-19T07:53:26.461Z,1020.32
2018-05-19T07:54:26.407Z,1020.27
2018-05-19T07:55:26.337Z,1020.33
2018-05-19T07:56:26.286Z,1020.31
2018-05-19T07:57:26.218Z,1020.26
2018-05-19T07:58:26.158Z,1020.18
2018-05-19T07:59:26.098Z,1020.15
2018-05-19T08:00:26.042Z,1020.17
2018-05-19T08:01:26.255Z,1020.19
2018-05-19T08:02:25.912Z,1020.11
2018-05-19T08:03:25.856Z,1020.15
2018-05-19T08:04:25.799Z,1020.18
2018-05-19T08:05:25.739Z,1020.15
2018-05-19T08:06:25.681Z,1020.17
2018-05-19T08:07:25.620Z,1020.19
2018-05-19T08:08:25.558Z,1020.20
2018-05-19T08:09:25.498Z,1020.12
2018-05-19T08:10:25.441Z,1020.15
2018-05-19T08:11:25.380Z,1020.15
2018-05-19T08:12:25.386Z,1020.15
2018-05-19T08:13:25.264Z,1020.18
2018-05-19T08:14:25.195Z,1020.15
2018-05-19T08:15:25.139Z,1020.16
2018-05-19T08:16:25.080Z,1020.14
2018-05-19T08:17:25.022Z,1020.18
2018-05-19T08:18:24.966Z,1020.18
2018-05-19T08:19:24.903Z,1020.15
2018-05-19T08:20:24.957Z,1020.16
2018-05-19T08:21:24.792Z,1020.16
2018-05-19T08:22:24.735Z,1020.16
2018-05-19T08:23:24.667Z,1020.13
2018-05-19T08:24:24.611Z,1020.15
2018-05-19T08:25:24.626Z,1020.14
2018-05-19T08:26:24.486Z,1020.10
2018-05-19T08:27:24.425Z,1020.12
2018-05-19T08:28:24.372Z,1020.12
2018-05-19T08:29:24.306Z,1020.11
2018-05-19T08:30:24.299Z,1020.10
2018-05-19T08:31:24.188Z,1020.14
2018-05-19T08:32:24.130Z,1020.11
2018-05-19T08:33:24.074Z,1020.10
2018-05-19T08:34:24.165Z,1020.11
2018-05-19T08:35:23.955Z,1020.09
2018-05-19T08:36:23.890Z,1020.07
2018-05-19T08:37:23.833Z,1020.07
2018-05-19T08:38:23.775Z,1020.10
2018-05-19T08:39:23.713Z,1020.11
2018-05-19T08:40:23.656Z,1020.11
2018-05-19T08:41:23.595Z,1020.16
2018-05-19T08:42:23.546Z,1020.13
2018-05-19T08:43:23.491Z,1020.07
2018-05-19T08:44:23.418Z,1020.08
2018-05-19T08:45:23.362Z,1020.11
2018-05-19T08:46:23.305Z,1020.05
2018-05-19T08:47:23.241Z,1020.11
2018-05-19T08:48:23.182Z,1020.08
2018-05-19T08:49:24.200Z,1020.06
2018-05-19T08:50:23.270Z,1020.11
2018-05-19T08:51:23.009Z,1020.08
2018-05-19T08:52:22.949Z,1020.08
2018-05-19T08:53:22.886Z,1020.04
2018-05-19T08:54:22.828Z,1020.10
2018-05-19T08:55:22.766Z,1020.07
2018-05-19T08:56:22.712Z,1020.09
2018-05-19T08:57:22.649Z,1020.06
2018-05-19T08:58:22.592Z,1020.09
2018-05-19T08:59:22.531Z,1020.09
2018-05-19T09:00:22.472Z,1020.08
2018-05-19T09:01:22.412Z,1020.05
2018-05-19T09:02:22.357Z,1020.06
2018-05-19T09:03:22.298Z,1020.06
2018-05-19T09:04:22.237Z,1020.10
2018-05-19T09:05:22.178Z,1020.06
2018-05-19T09:06:22.118Z,1020.10
2018-05-19T09:07:22.053Z,1020.10
2018-05-19T09:08:22.008Z,1020.11
2018-05-19T09:09:21.941Z,1020.12
2018-05-19T09:10:21.910Z,1020.16
2018-05-19T09:11:21.824Z,1020.07
2018-05-19T09:12:21.771Z,1020.04
2018-05-19T09:13:21.712Z,1020.05
2018-05-19T09:14:21.646Z,1020.07
2018-05-19T09:15:21.587Z,1020.01
2018-05-19T09:16:21.529Z,1019.99
2018-05-19T09:17:21.469Z,1020.02
2018-05-19T09:18:21.412Z,1020.06
2018-05-19T09:19:21.351Z,1020.05
2018-05-19T09:20:21.292Z,1020.12
2018-05-19T09:21:21.241Z,1020.06
2018-05-19T09:22:21.184Z,1020.03
2018-05-19T09:23:21.120Z,1020.03
2018-05-19T09:24:21.057Z,1020.05
2018-05-19T09:25:20.996Z,1020.05
2018-05-19T09:26:20.944Z,1020.04
2018-05-19T09:27:20.885Z,1020.06
2018-05-19T09:28:20.825Z,1020.00
2018-05-19T09:29:20.768Z,1020.02
2018-05-19T09:30:20.704Z,1020.03
2018-05-19T09:31:20.646Z,1020.05
2018-05-19T09:32:20.588Z,1020.05
2018-05-19T09:33:20.532Z,1019.96
2018-05-19T09:34:20.641Z,1019.98
2018-05-19T09:35:20.412Z,1019.95
2018-05-19T09:36:20.361Z,1019.96
2018-05-19T09:37:20.300Z,1019.98
2018-05-19T09:38:20.240Z,1019.97
2018-05-19T09:39:20.176Z,1019.97
2018-05-19T09:40:20.121Z,1019.97
2018-05-19T09:41:20.062Z,1019.97
2018-05-19T09:42:19.999Z,1020.01
2018-05-19T09:43:19.959Z,1020.01
2018-05-19T09:44:19.883Z,1020.00
2018-05-19T09:45:19.901Z,1020.01
2018-05-19T09:46:19.766Z,1020.03
2018-05-19T09:47:19.781Z,1020.03
2018-05-19T09:48:19.647Z,1020.03
2018-05-19T09:49:19.591Z,1020.10
2018-05-19T09:50:19.536Z,1020.06
2018-05-19T09:51:19.472Z,1020.03
2018-05-19T09:52:19.415Z,1020.07
2018-05-19T09:53:19.355Z,1020.10
2018-05-19T09:54:19.299Z,1020.07
2018-05-19T09:55:19.240Z,1020.05
2018-05-19T09:56:19.179Z,1020.08
2018-05-19T09:57:19.125Z,1020.11
2018-05-19T09:58:19.065Z,1020.10
2018-05-19T09:59:19.060Z,1020.11
2018-05-19T10:00:18.948Z,1020.10
2018-05-19T10:01:18.891Z,1020.07
2018-05-19T10:02:18.832Z,1020.13
2018-05-19T10:03:18.775Z,1020.07
2018-05-19T10:04:18.717Z,1020.08
2018-05-19T10:05:18.648Z,1020.05
2018-05-19T10:06:18.598Z,1020.05
2018-05-19T10:07:18.541Z,1020.05
2018-05-19T10:08:18.489Z,1020.04
2018-05-19T10:09:18.425Z,1020.05
2018-05-19T10:10:18.364Z,1020.06
2018-05-19T10:11:18.300Z,1020.05
2018-05-19T10:12:18.247Z,1020.06
2018-05-19T10:13:18.195Z,1020.06
2018-05-19T10:14:18.135Z,1020.04
2018-05-19T10:15:18.613Z,1020.11
2018-05-19T10:16:18.018Z,1020.07
2018-05-19T10:17:18.053Z,1020.07
2018-05-19T10:18:17.899Z,1020.05
2018-05-19T10:19:17.845Z,1020.01
2018-05-19T10:20:17.782Z,1020.05
2018-05-19T10:21:17.725Z,1020.00
2018-05-19T10:22:17.666Z,1019.98
2018-05-19T10:23:17.606Z,1019.95
2018-05-19T10:24:17.554Z,1019.95
2018-05-19T10:25:17.491Z,1019.99
2018-05-19T10:26:17.436Z,1020.04
2018-05-19T10:27:17.377Z,1020.02
2018-05-19T10:28:17.406Z,1020.00
2018-05-19T10:29:17.257Z,1020.05
2018-05-19T10:30:17.204Z,1020.01
2018-05-19T10:31:17.145Z,1020.03
2018-05-19T10:32:17.090Z,1020.00
2018-05-19T10:33:17.031Z,1020.02
2018-05-19T10:34:16.971Z,1020.02
2018-05-19T10:35:16.912Z,1020.00
2018-05-19T10:36:16.853Z,1020.04
2018-05-19T10:37:16.794Z,1020.02
2018-05-19T10:38:16.738Z,1020.00
2018-05-19T10:39:16.680Z,1019.99
2018-05-19T10:40:16.622Z,1019.97
2018-05-19T10:41:16.579Z,1019.96
2018-05-19T10:42:16.571Z,1019.96
2018-05-19T10:43:16.449Z,1019.99
2018-05-19T10:44:16.392Z,1019.96
2018-05-19T10:45:16.336Z,1019.93
2018-05-19T10:46:16.277Z,1019.93
2018-05-19T10:47:16.218Z,1019.95
2018-05-19T10:48:16.161Z,1019.93
2018-05-19T10:49:16.103Z,1019.90
2018-05-19T10:50:16.048Z,1019.90
2018-05-19T10:51:15.986Z,1019.90
2018-05-19T10:52:15.937Z,1019.91
2018-05-19T10:53:15.880Z,1019.91
2018-05-19T10:54:15.817Z,1019.95
2018-05-19T10:55:15.759Z,1019.95
2018-05-19T10:56:15.700Z,1019.98
2018-05-19T10:57:15.645Z,1019.97
2018-05-19T10:58:15.589Z,1019.93
2018-05-19T10:59:15.531Z,1019.93
2018-05-19T11:00:15.470Z,1019.94
2018-05-19T11:01:15.419Z,1019.97
2018-05-19T11:02:15.358Z,1019.95
2018-05-19T11:03:15.302Z,1019.91
2018-05-19T11:04:15.254Z,1019.94
2018-05-19T11:05:15.200Z,1019.92
2018-05-19T11:06:15.131Z,1019.94
2018-05-19T11:07:15.070Z,1019.98
2018-05-19T11:08:15.299Z,1019.98
2018-05-19T11:09:14.973Z,1019.96
2018-05-19T11:10:14.960Z,1019.98
2018-05-19T11:11:15.411Z,1019.96
2018-05-19T11:13:47.892Z,1020.07
2018-05-19T11:14:47.764Z,1020.41
2018-05-19T11:16:41.097Z,1020.98
2018-05-19T11:17:41.016Z,1020.99
2018-05-19T11:19:35.742Z,1020.97
2018-05-19T11:20:35.663Z,1021.01
2018-05-19T11:22:30.020Z,1021.07
2018-05-19T11:23:29.922Z,1021.01
2018-05-19T11:25:25.321Z,1021.11
2018-05-19T11:26:25.165Z,1021.06
2018-05-19T11:28:18.495Z,1021.12
2018-05-19T11:29:18.410Z,1021.10
2018-05-19T11:31:13.341Z,1020.97
2018-05-19T11:32:12.651Z,1020.87
2018-05-19T11:34:06.975Z,1020.90
2018-05-19T11:35:06.894Z,1020.91
2018-05-19T11:37:00.238Z,1020.95
2018-05-19T11:38:00.142Z,1020.93
2018-05-19T11:39:00.102Z,1020.93
2018-05-19T11:40:00.051Z,1020.92
2018-05-19T11:41:00.010Z,1020.88
2018-05-19T11:41:59.961Z,1020.87
2018-05-19T11:42:59.910Z,1020.87
2018-05-19T11:43:59.865Z,1020.79
2018-05-19T11:44:59.820Z,1020.89
2018-05-19T11:45:59.773Z,1020.90
2018-05-19T11:46:59.728Z,1020.94
2018-05-19T11:47:59.682Z,1020.84
2018-05-19T11:48:59.638Z,1020.90
2018-05-19T11:49:59.593Z,1020.91
2018-05-19T11:50:59.546Z,1020.90
2018-05-19T11:51:59.499Z,1020.94
2018-05-19T11:52:59.451Z,1020.92
2018-05-19T11:53:59.410Z,1020.89
2018-05-19T11:54:59.367Z,1020.94
2018-05-19T11:55:59.323Z,1020.93
2018-05-19T11:56:59.278Z,1020.94
2018-05-19T11:57:59.232Z,1020.94
2018-05-19T11:58:59.191Z,1020.94
2018-05-19T11:59:59.144Z,1021.01
2018-05-19T12:00:59.100Z,1021.04
2018-05-19T12:01:59.058Z,1021.03
2018-05-19T12:02:59.010Z,1021.03
2018-05-19T12:03:58.967Z,1021.05
2018-05-19T12:04:58.932Z,1021.01
2018-05-19T12:05:58.875Z,1021.01
2018-05-19T12:06:58.846Z,1021.02
2018-05-19T12:07:58.864Z,1020.98
2018-05-19T12:08:58.752Z,1020.88
2018-05-19T12:09:58.714Z,1020.94
2018-05-19T12:10:58.664Z,1021.03
2018-05-19T12:11:58.724Z,1021.09
2018-05-19T12:12:58.578Z,1021.15
2018-05-19T12:13:58.532Z,1021.15